Time;durP1;ratioP1;P1;durP2;ratioP2;P2;SDS_P1;SDS_P2;PMS_P1;PMS_P2;Temp;Humidity;BMP_temperature;BMP_pressure;BME280_temperature;BME280_humidity;BME280_pressure;Samples;Min_cycle;Max_cycle;Signal;HPM_P1;HPM_P2
2022/05/20 00:01:01;;;;;;;;;;;;;;;;;;5117725;28;20317;-81
2022/05/20 00:03:26;;;;;;;;;;;;;;;;;;5116899;28;19984;-81
2022/05/20 00:05:51;;;;;;;;;;;;;;;;;;5115988;28;19938;-81
2022/05/20 00:08:17;;;;;;;;;;;;;;;;;;5098880;28;20356;-80
2022/05/20 00:10:42;;;;;;;;;;;;;;;;;;5117143;28;19923;-81
2022/05/20 00:13:09;;;;;;;;;;;;;;;;;;5115644;28;20014;-81
2022/05/20 00:15:35;;;;;;;;;;;;;;;;;;5115514;28;19916;-81
2022/05/20 00:18:00;;;;;;;;;;;;;;;;;;5115550;28;19916;-81
2022/05/20 00:20:26;;;;;;;;;;;;;;;;;;5117281;28;19923;-81
2022/05/20 00:22:51;;;;;;;;;;;;;;;;;;5115760;28;19915;-81
2022/05/20 00:28:01;;;;;;;;;;;;;;;;;;5115552;28;19923;-82
2022/05/20 00:30:27;;;;;;;;;;;;;;;;;;5098392;28;19919;-83
2022/05/20 00:32:52;;;;;;;;;;;;;;;;;;5116114;28;19923;-82
2022/05/20 00:35:17;;;;;;;;;;;;;;;;;;5116370;28;19916;-82
2022/05/20 00:37:44;;;;;;;;;;;;;;;;;;5116461;28;20002;-82
2022/05/20 00:40:09;;;;;;;;;;;;;;;;;;5116233;28;20329;-82
2022/05/20 00:42:35;;;;;;;;;;;;;;;;;;5115262;28;19923;-82
2022/05/20 00:45:01;;;;;;;;;;;;;;;;;;5115470;28;19923;-82
2022/05/20 00:47:26;;;;;;;;;;;;;;;;;;5114838;28;19915;-82
2022/05/20 00:49:52;;;;;;;;;;;;;;;;;;5114985;28;20019;-82
2022/05/20 00:52:20;;;;;;;;;;;;;;;;;;5097164;28;19916;-83
2022/05/20 00:54:46;;;;;;;;;;;;;;;;;;5117881;28;19946;-83
2022/05/20 00:57:17;;;;;;;;;;;;;;;;;;5115848;28;19916;-82
2022/05/20 00:59:43;;;;;;;;;;;;;;;;;;5116825;28;19972;-82
2022/05/20 01:02:09;;;;;;;;;;;;;;;;;;5114555;28;19915;-81
2022/05/20 01:04:35;;;;;;;;;;;;;;;;;;5116036;28;19999;-84
2022/05/20 01:07:00;;;;;;;;;;;;;;;;;;5115044;28;20022;-83
2022/05/20 01:09:26;;;;;;;;;;;;;;;;;;5115015;28;20393;-82
2022/05/20 01:11:51;;;;;;;;;;;;;;;;;;5116062;28;19965;-83
2022/05/20 01:14:20;;;;;;;;;;;;;;;;;;5114692;28;19920;-84
2022/05/20 01:16:45;;;;;;;;;;;;;;;;;;5115713;28;19916;-84
2022/05/20 01:19:12;;;;;;;;;;;;;;;;;;5114634;28;20349;-83
2022/05/20 01:21:37;;;;;;;;;;;;;;;;;;5115036;28;19979;-83
2022/05/20 01:24:03;;;;;;;;;;;;;;;;;;5115993;28;20030;-83
2022/05/20 01:26:28;;;;;;;;;;;;;;;;;;5114696;28;19915;-84
2022/05/20 01:28:54;;;;;;;;;;;;;;;;;;5114932;28;19939;-83
2022/05/20 01:31:19;;;;;;;;;;;;;;;;;;5114225;28;20014;-84
2022/05/20 01:33:47;;;;;;;;;;;;;;;;;;5115769;28;19916;-84
2022/05/20 01:36:14;;;;;;;;;;;;;;;;;;5115760;28;19982;-82
2022/05/20 01:38:39;;;;;;;;;;;;;;;;;;5115647;28;19916;-81
2022/05/20 01:41:07;;;;;;;;;;;;;;;;;;5114136;28;19926;-82
2022/05/20 01:43:35;;;;;;;;;;;;;;;;;;5115122;28;20382;-81
2022/05/20 01:46:19;;;;;;;;;;;;;;;;;;5115552;28;20341;-82
2022/05/20 01:48:54;;;;;;;;;;;;;;;;;;5115571;28;19920;-83
2022/05/20 01:51:19;;;;;;;;;;;;;;;;;;5114419;28;19916;-82
2022/05/20 01:53:46;;;;;;;;;;;;;;;;;;5115184;28;19916;-82
2022/05/20 01:56:12;;;;;;;;;;;;;;;;;;5114351;28;19965;-82
2022/05/20 01:58:38;;;;;;;;;;;;;;;;;;5114086;28;19973;-82
2022/05/20 02:01:04;;;;;;;;;;;;;;;;;;5115170;28;19916;-82
2022/05/20 02:03:29;;;;;;;;;;;;;;;;;;5117092;28;20343;-82
2022/05/20 02:06:06;;;;;;;;;;;;;;;;;;5118304;28;19955;-82
2022/05/20 02:08:39;;;;;;;;;;;;;;;;;;5118178;28;19916;-82
2022/05/20 02:11:09;;;;;;;;;;;;;;;;;;5101345;28;20399;-82
2022/05/20 02:13:35;;;;;;;;;;;;;;;;;;5117857;28;19915;-82
2022/05/20 02:16:02;;;;;;;;;;;;;;;;;;5119444;28;19912;-82
2022/05/20 02:18:29;;;;;;;;;;;;;;;;;;5118204;28;19915;-82
2022/05/20 02:20:56;;;;;;;;;;;;;;;;;;5117899;28;20389;-82
2022/05/20 02:23:22;;;;;;;;;;;;;;;;;;5119002;28;19916;-83
2022/05/20 02:25:49;;;;;;;;;;;;;;;;;;5100709;28;19918;-82
2022/05/20 02:28:19;;;;;;;;;;;;;;;;;;5117729;28;20351;-82
2022/05/20 02:30:45;;;;;;;;;;;;;;;;;;5118555;28;19916;-82
2022/05/20 02:33:14;;;;;;;;;;;;;;;;;;5100508;28;19916;-82
2022/05/20 02:35:39;;;;;;;;;;;;;;;;;;5100805;28;19939;-82
2022/05/20 02:38:10;;;;;;;;;;;;;;;;;;5119272;28;19919;-83
2022/05/20 02:40:37;;;;;;;;;;;;;;;;;;5100684;28;19916;-83
2022/05/20 02:43:02;;;;;;;;;;;;;;;;;;5118310;28;20070;-83
2022/05/20 02:45:28;;;;;;;;;;;;;;;;;;5118768;28;20035;-83
2022/05/20 02:47:53;;;;;;;;;;;;;;;;;;5117684;28;19923;-83
2022/05/20 02:50:19;;;;;;;;;;;;;;;;;;5118916;28;19916;-84
2022/05/20 02:52:44;;;;;;;;;;;;;;;;;;5118862;28;19922;-84
2022/05/20 02:55:10;;;;;;;;;;;;;;;;;;5118809;28;19916;-85
2022/05/20 02:57:36;;;;;;;;;;;;;;;;;;5117654;28;19938;-84
2022/05/20 03:05:31;;;;;;;;;;;;;;;;;;5117313;28;19965;-83
2022/05/20 03:07:56;;;;;;;;;;;;;;;;;;5118672;28;19916;-84
2022/05/20 03:10:22;;;;;;;;;;;;;;;;;;5118188;28;19915;-83
2022/05/20 03:12:47;;;;;;;;;;;;;;;;;;5117408;28;19915;-84
2022/05/20 03:15:13;;;;;;;;;;;;;;;;;;5117284;28;19947;-84
2022/05/20 03:17:38;;;;;;;;;;;;;;;;;;5117309;28;19963;-82
2022/05/20 03:20:04;;;;;;;;;;;;;;;;;;5117006;28;19916;-82
2022/05/20 03:22:29;;;;;;;;;;;;;;;;;;5116619;28;20043;-82
2022/05/20 03:24:55;;;;;;;;;;;;;;;;;;5099431;28;19916;-82
2022/05/20 03:27:20;;;;;;;;;;;;;;;;;;5117773;28;19915;-83
2022/05/20 03:29:46;;;;;;;;;;;;;;;;;;5118111;28;19916;-84
2022/05/20 03:32:11;;;;;;;;;;;;;;;;;;5117990;28;19915;-84
2022/05/20 03:34:38;;;;;;;;;;;;;;;;;;5099628;28;20317;-81
2022/05/20 03:37:04;;;;;;;;;;;;;;;;;;5116793;28;20257;-83
2022/05/20 03:39:29;;;;;;;;;;;;;;;;;;5116480;28;19919;-81
2022/05/20 03:41:55;;;;;;;;;;;;;;;;;;5118059;28;19916;-82
2022/05/20 03:44:21;;;;;;;;;;;;;;;;;;5117728;28;19969;-81
2022/05/20 03:46:51;;;;;;;;;;;;;;;;;;5117713;28;20282;-80
2022/05/20 03:49:16;;;;;;;;;;;;;;;;;;5116954;28;20009;-77
2022/05/20 03:51:42;;;;;;;;;;;;;;;;;;5117334;28;19954;-76
2022/05/20 03:54:07;;;;;;;;;;;;;;;;;;5115774;28;20337;-76
2022/05/20 03:56:32;;;;;;;;;;;;;;;;;;5116150;28;20337;-75
2022/05/20 03:58:58;;;;;;;;;;;;;;;;;;5116892;28;19916;-76
2022/05/20 04:01:56;;;;;;;;;;;;;;;;;;5115727;28;19915;-76
2022/05/20 04:04:15;;;;;;;;;;;;;;;;;;5115954;28;19916;-76
2022/05/20 04:06:40;;;;;;;;;;;;;;;;;;5116726;28;20332;-77
2022/05/20 04:09:06;;;;;;;;;;;;;;;;;;5116374;28;19916;-76
2022/05/20 04:11:32;;;;;;;;;;;;;;;;;;5116641;27;19916;-76
2022/05/20 04:13:57;;;;;;;;;;;;;;;;;;5116781;28;19923;-76
2022/05/20 04:16:22;;;;;;;;;;;;;;;;;;5116839;28;20309;-77
2022/05/20 04:18:48;;;;;;;;;;;;;;;;;;5115364;28;20358;-77
2022/05/20 04:21:13;;;;;;;;;;;;;;;;;;5115665;28;19926;-77
2022/05/20 04:23:39;;;;;;;;;;;;;;;;;;5114350;28;20015;-77
2022/05/20 04:26:04;;;;;;;;;;;;;;;;;;5114443;28;20269;-77
2022/05/20 04:28:30;;;;;;;;;;;;;;;;;;5115689;28;19959;-75
2022/05/20 04:30:56;;;;;;;;;;;;;;;;;;5114324;28;19970;-76
2022/05/20 04:33:22;;;;;;;;;;;;;;;;;;5115682;28;19923;-76
2022/05/20 04:35:47;;;;;;;;;;;;;;;;;;5114672;28;19920;-77
2022/05/20 04:38:13;;;;;;;;;;;;;;;;;;5116220;28;19916;-76
2022/05/20 04:40:38;;;;;;;;;;;;;;;;;;5115289;28;20262;-77
2022/05/20 04:48:31;;;;;;;;;;;;;;;;;;5115428;28;19942;-76
2022/05/20 04:50:57;;;;;;;;;;;;;;;;;;5115170;28;19920;-77
2022/05/20 04:56:06;;;;;;;;;;;;;;;;;;5114771;28;20003;-77
2022/05/20 04:58:31;;;;;;;;;;;;;;;;;;5115386;28;20014;-76
2022/05/20 05:00:58;;;;;;;;;;;;;;;;;;5114226;28;19915;-77
2022/05/20 05:03:24;;;;;;;;;;;;;;;;;;5114678;28;20340;-78
2022/05/20 05:05:50;;;;;;;;;;;;;;;;;;5114974;28;20224;-77
2022/05/20 05:08:16;;;;;;;;;;;;;;;;;;5114692;28;19915;-78
2022/05/20 05:10:42;;;;;;;;;;;;;;;;;;5114733;28;19915;-77
2022/05/20 05:13:08;;;;;;;;;;;;;;;;;;5114826;28;20006;-77
2022/05/20 05:15:35;;;;;;;;;;;;;;;;;;5113215;28;19915;-77
2022/05/20 05:18:11;;;;;;;;;;;;;;;;;;5114477;28;19916;-76
2022/05/20 05:20:37;;;;;;;;;;;;;;;;;;5114568;28;19947;-76
2022/05/20 05:23:02;;;;;;;;;;;;;;;;;;5112938;28;20349;-77
2022/05/20 05:25:28;;;;;;;;;;;;;;;;;;5113312;28;19916;-76
2022/05/20 05:27:54;;;;;;;;;;;;;;;;;;5114524;28;19963;-76
2022/05/20 05:30:19;;;;;;;;;;;;;;;;;;5113496;28;20000;-76
2022/05/20 05:32:45;;;;;;;;;;;;;;;;;;5096343;28;20329;-77
2022/05/20 05:35:12;;;;;;;;;;;;;;;;;;5113017;28;19919;-76
2022/05/20 05:37:37;;;;;;;;;;;;;;;;;;5113677;28;20056;-77
2022/05/20 05:40:03;;;;;;;;;;;;;;;;;;5113062;28;19955;-76
2022/05/20 05:42:29;;;;;;;;;;;;;;;;;;5113007;28;19923;-77
2022/05/20 05:44:55;;;;;;;;;;;;;;;;;;5112796;28;19916;-77
2022/05/20 05:47:23;;;;;;;;;;;;;;;;;;5113630;28;21289;-77
2022/05/20 05:49:48;;;;;;;;;;;;;;;;;;5114811;28;19967;-77
2022/05/20 05:52:13;;;;;;;;;;;;;;;;;;5112853;28;20019;-77
2022/05/20 05:54:39;;;;;;;;;;;;;;;;;;5114849;28;19980;-78
2022/05/20 05:57:04;;;;;;;;;;;;;;;;;;5095989;28;19976;-77
2022/05/20 05:59:31;;;;;;;;;;;;;;;;;;5114025;28;19915;-77
2022/05/20 06:01:59;;;;;;;;;;;;;;;;;;5114707;28;19922;-78
2022/05/20 06:04:25;;;;;;;;;;;;;;;;;;5112991;28;19958;-76
2022/05/20 06:06:50;;;;;;;;;;;;;;;;;;5112485;28;19955;-78
2022/05/20 06:09:15;;;;;;;;;;;;;;;;;;5112829;28;19919;-76
2022/05/20 06:11:41;;;;;;;;;;;;;;;;;;5114021;28;19919;-77
2022/05/20 06:14:07;;;;;;;;;;;;;;;;;;5114078;28;19916;-77
2022/05/20 06:16:32;;;;;;;;;;;;;;;;;;5113804;28;19912;-76
2022/05/20 06:18:57;;;;;;;;;;;;;;;;;;5112908;28;20029;-75
2022/05/20 06:21:23;;;;;;;;;;;;;;;;;;5112240;28;19916;-76
2022/05/20 06:23:48;;;;;;;;;;;;;;;;;;5114005;28;19991;-76
2022/05/20 06:26:13;;;;;;;;;;;;;;;;;;5113568;28;19998;-76
2022/05/20 06:28:39;;;;;;;;;;;;;;;;;;5112658;28;19923;-76
2022/05/20 06:31:04;;;;;;;;;;;;;;;;;;5112394;28;19922;-76
2022/05/20 06:33:30;;;;;;;;;;;;;;;;;;5113686;28;19920;-77
2022/05/20 06:41:23;;;;;;;;;;;;;;;;;;5113001;28;19919;-76
2022/05/20 06:43:49;;;;;;;;;;;;;;;;;;5113842;28;19915;-75
2022/05/20 06:46:14;;;;;;;;;;;;;;;;;;5113716;28;19942;-75
2022/05/20 06:48:46;;;;;;;;;;;;;;;;;;5113271;28;20386;-75
2022/05/20 06:51:13;;;;;;;;;;;;;;;;;;5117449;28;19923;-75
2022/05/20 06:53:38;;;;;;;;;;;;;;;;;;5117212;27;19934;-75
2022/05/20 06:56:04;;;;;;;;;;;;;;;;;;5117688;28;20276;-75
2022/05/20 06:58:31;;;;;;;;;;;;;;;;;;5117672;28;19920;-75
2022/05/20 07:00:56;;;;;;;;;;;;;;;;;;5099330;28;19926;-76
2022/05/20 07:03:22;;;;;;;;;;;;;;;;;;5116948;28;19915;-75
2022/05/20 07:05:48;;;;;;;;;;;;;;;;;;5115463;28;19972;-75
2022/05/20 07:08:13;;;;;;;;;;;;;;;;;;5115928;28;19916;-76
2022/05/20 07:10:39;;;;;;;;;;;;;;;;;;5117231;28;19916;-77
2022/05/20 07:13:05;;;;;;;;;;;;;;;;;;5116844;28;20226;-77
2022/05/20 07:15:31;;;;;;;;;;;;;;;;;;5117207;28;19971;-76
2022/05/20 07:17:56;;;;;;;;;;;;;;;;;;5116903;28;20395;-75
2022/05/20 07:20:22;;;;;;;;;;;;;;;;;;5115770;28;19916;-77
2022/05/20 07:22:47;;;;;;;;;;;;;;;;;;5117032;28;20325;-76
2022/05/20 07:25:12;;;;;;;;;;;;;;;;;;5116888;28;19938;-77
2022/05/20 07:27:38;;;;;;;;;;;;;;;;;;5116911;28;19920;-75
2022/05/20 07:30:03;;;;;;;;;;;;;;;;;;5116838;28;19920;-76
2022/05/20 07:32:29;;;;;;;;;;;;;;;;;;5116916;28;19920;-76
2022/05/20 07:34:54;;;;;;;;;;;;;;;;;;5116615;28;19930;-77
2022/05/20 07:37:19;;;;;;;;;;;;;;;;;;5116944;28;19951;-77
2022/05/20 07:39:45;;;;;;;;;;;;;;;;;;5117331;27;20343;-75
2022/05/20 07:42:11;;;;;;;;;;;;;;;;;;5116937;28;20340;-74
2022/05/20 07:44:36;;;;;;;;;;;;;;;;;;5116419;28;19916;-75
2022/05/20 07:47:02;;;;;;;;;;;;;;;;;;5115859;28;20018;-75
2022/05/20 07:49:28;;;;;;;;;;;;;;;;;;5116360;28;19927;-76
2022/05/20 07:51:55;;;;;;;;;;;;;;;;;;5115254;28;19915;-77
2022/05/20 07:54:23;;;;;;;;;;;;;;;;;;5115168;28;19916;-76
2022/05/20 07:56:55;;;;;;;;;;;;;;;;;;5116400;28;19916;-76
2022/05/20 07:59:29;;;;;;;;;;;;;;;;;;5115268;28;19920;-75
2022/05/20 08:01:54;;;;;;;;;;;;;;;;;;5097471;28;19916;-75
2022/05/20 08:05:00;;;;;;;;;;;;;;;;;;5116564;28;19990;-76
2022/05/20 08:07:31;;;;;;;;;;;;;;;;;;5095677;28;19916;-75
2022/05/20 08:09:57;;;;;;;;;;;;;;;;;;5115847;28;19916;-76
2022/05/20 08:12:22;;;;;;;;;;;;;;;;;;5115569;28;19922;-76
2022/05/20 08:14:48;;;;;;;;;;;;;;;;;;5115420;28;19923;-76
2022/05/20 08:17:13;;;;;;;;;;;;;;;;;;5116306;28;19916;-77
2022/05/20 08:19:39;;;;;;;;;;;;;;;;;;5116950;28;19916;-76
2022/05/20 08:22:04;;;;;;;;;;;;;;;;;;5116537;28;20337;-76
2022/05/20 08:24:30;;;;;;;;;;;;;;;;;;5116682;28;19938;-75
2022/05/20 08:26:56;;;;;;;;;;;;;;;;;;5116489;28;19959;-77
2022/05/20 08:29:21;;;;;;;;;;;;;;;;;;5116739;28;19916;-76
2022/05/20 08:31:46;;;;;;;;;;;;;;;;;;5098066;28;20286;-75
2022/05/20 08:34:13;;;;;;;;;;;;;;;;;;5115408;28;19915;-77
2022/05/20 08:36:39;;;;;;;;;;;;;;;;;;5115286;28;19915;-76
2022/05/20 08:39:04;;;;;;;;;;;;;;;;;;5098243;28;19919;-78
2022/05/20 08:41:36;;;;;;;;;;;;;;;;;;5116495;28;19922;-78
2022/05/20 08:44:02;;;;;;;;;;;;;;;;;;5114610;28;20008;-77
2022/05/20 08:46:28;;;;;;;;;;;;;;;;;;5115994;28;19964;-76
2022/05/20 08:48:54;;;;;;;;;;;;;;;;;;5116347;28;20328;-75
2022/05/20 08:51:20;;;;;;;;;;;;;;;;;;5114709;28;19926;-75
2022/05/20 08:53:45;;;;;;;;;;;;;;;;;;5114724;28;19923;-76
2022/05/20 08:56:15;;;;;;;;;;;;;;;;;;5114443;28;19916;-75
2022/05/20 08:58:43;;;;;;;;;;;;;;;;;;5114323;28;19941;-76
2022/05/20 09:01:08;;;;;;;;;;;;;;;;;;5114721;28;19966;-76
2022/05/20 09:03:34;;;;;;;;;;;;;;;;;;5115888;28;19922;-78
2022/05/20 09:06:04;;;;;;;;;;;;;;;;;;5114860;28;19915;-75
2022/05/20 09:08:29;;;;;;;;;;;;;;;;;;5114326;28;20282;-75
2022/05/20 09:10:58;;;;;;;;;;;;;;;;;;5115520;28;19982;-76
2022/05/20 09:13:23;;;;;;;;;;;;;;;;;;5113501;28;19916;-75
2022/05/20 09:16:04;;;;;;;;;;;;;;;;;;5115737;28;19947;-77
2022/05/20 09:18:37;;;;;;;;;;;;;;;;;;5115688;28;20306;-77
2022/05/20 09:21:03;;;;;;;;;;;;;;;;;;5115463;28;19979;-75
2022/05/20 09:23:29;;;;;;;;;;;;;;;;;;5115471;28;20002;-76
2022/05/20 09:26:04;;;;;;;;;;;;;;;;;;5114003;28;19945;-76
2022/05/20 09:28:56;;;;;;;;;;;;;;;;;;5113814;28;20337;-76
2022/05/20 09:31:40;;;;;;;;;;;;;;;;;;5098506;28;19923;-76
2022/05/20 09:34:15;;;;;;;;;;;;;;;;;;5114087;28;19915;-76
2022/05/20 09:36:57;;;;;;;;;;;;;;;;;;5114347;28;20230;-76
2022/05/20 09:39:35;;;;;;;;;;;;;;;;;;5115296;28;19916;-77
2022/05/20 09:42:07;;;;;;;;;;;;;;;;;;5114417;28;20381;-75
2022/05/20 09:44:36;;;;;;;;;;;;;;;;;;5112311;28;19919;-75
2022/05/20 09:47:04;;;;;;;;;;;;;;;;;;5111837;28;20337;-76
2022/05/20 09:49:42;;;;;;;;;;;;;;;;;;5114421;28;19927;-76
2022/05/20 09:52:15;;;;;;;;;;;;;;;;;;5112398;28;19946;-76
2022/05/20 09:54:40;;;;;;;;;;;;;;;;;;5112990;28;20260;-76
2022/05/20 09:57:22;;;;;;;;;;;;;;;;;;5113788;28;20016;-75
2022/05/20 09:59:56;;;;;;;;;;;;;;;;;;5114087;28;19987;-76
2022/05/20 10:02:29;;;;;;;;;;;;;;;;;;5112733;28;19985;-76
2022/05/20 10:05:13;;;;;;;;;;;;;;;;;;5113058;28;19916;-77
2022/05/20 10:07:38;;;;;;;;;;;;;;;;;;5113689;28;19963;-76
2022/05/20 10:10:16;;;;;;;;;;;;;;;;;;5114331;28;19916;-78
2022/05/20 10:12:42;;;;;;;;;;;;;;;;;;5113863;28;19912;-76
2022/05/20 10:15:13;;;;;;;;;;;;;;;;;;5095386;28;19915;-76
2022/05/20 10:17:42;;;;;;;;;;;;;;;;;;5114574;28;20537;-76
2022/05/20 10:20:13;;;;;;;;;;;;;;;;;;5114099;28;19959;-76
2022/05/20 10:22:42;;;;;;;;;;;;;;;;;;5094727;28;20043;-77
2022/05/20 10:25:26;;;;;;;;;;;;;;;;;;5116752;28;19927;-76
2022/05/20 10:27:58;;;;;;;;;;;;;;;;;;5117414;28;20006;-75
2022/05/20 10:33:31;;;;;;;;;;;;;;;;;;5116693;28;19918;-76
2022/05/20 10:36:15;;;;;;;;;;;;;;;;;;5118166;28;20256;-76
2022/05/20 10:38:49;;;;;;;;;;;;;;;;;;5118011;28;19912;-76
2022/05/20 10:41:18;;;;;;;;;;;;;;;;;;5117541;28;20370;-75
2022/05/20 10:49:33;;;;;;;;;;;;;;;;;;5117603;28;19951;-76
2022/05/20 10:52:05;;;;;;;;;;;;;;;;;;5117716;28;19947;-77
2022/05/20 10:54:59;;;;;;;;;;;;;;;;;;5117215;28;19934;-76
2022/05/20 10:57:40;;;;;;;;;;;;;;;;;;5112041;28;19915;-78
2022/05/20 11:00:32;;;;;;;;;;;;;;;;;;5117541;28;20352;-76
2022/05/20 11:02:57;;;;;;;;;;;;;;;;;;5108739;28;19922;-77
2022/05/20 11:05:22;;;;;;;;;;;;;;;;;;5117594;28;19920;-78
2022/05/20 11:07:48;;;;;;;;;;;;;;;;;;5117242;28;19916;-78
2022/05/20 11:10:31;;;;;;;;;;;;;;;;;;5117609;27;20295;-78
2022/05/20 11:13:15;;;;;;;;;;;;;;;;;;5117704;28;19911;-78
2022/05/20 11:15:59;;;;;;;;;;;;;;;;;;5117505;28;19939;-78
2022/05/20 11:18:31;;;;;;;;;;;;;;;;;;5117543;28;19911;-77
2022/05/20 11:20:58;;;;;;;;;;;;;;;;;;5117737;28;20010;-77
2022/05/20 11:23:42;;;;;;;;;;;;;;;;;;5118054;28;19922;-77
2022/05/20 11:26:07;;;;;;;;;;;;;;;;;;5118046;28;19944;-78
2022/05/20 11:28:33;;;;;;;;;;;;;;;;;;5118002;28;19951;-78
2022/05/20 11:31:17;;;;;;;;;;;;;;;;;;5118155;28;19912;-76
2022/05/20 11:33:47;;;;;;;;;;;;;;;;;;5116770;28;19916;-75
2022/05/20 11:36:19;;;;;;;;;;;;;;;;;;5115752;28;19940;-75
2022/05/20 11:38:50;;;;;;;;;;;;;;;;;;5117290;28;19937;-78
2022/05/20 11:41:36;;;;;;;;;;;;;;;;;;5117777;28;19946;-78
2022/05/20 11:44:20;;;;;;;;;;;;;;;;;;5112736;28;20276;-77
2022/05/20 11:46:48;;;;;;;;;;;;;;;;;;5117187;28;19920;-78
2022/05/20 11:49:29;;;;;;;;;;;;;;;;;;5116231;28;20356;-76
2022/05/20 11:52:13;;;;;;;;;;;;;;;;;;5117763;28;19916;-76
2022/05/20 11:54:44;;;;;;;;;;;;;;;;;;5117046;28;19916;-78
2022/05/20 11:57:17;;;;;;;;;;;;;;;;;;5116295;28;19916;-77
2022/05/20 12:00:03;;;;;;;;;;;;;;;;;;5117150;28;19923;-78
2022/05/20 12:02:33;;;;;;;;;;;;;;;;;;5116081;28;19999;-77
2022/05/20 12:04:59;;;;;;;;;;;;;;;;;;5115915;28;19915;-78
2022/05/20 12:07:24;;;;;;;;;;;;;;;;;;5115604;28;19938;-78
2022/05/20 12:09:56;;;;;;;;;;;;;;;;;;5116514;28;19915;-79
2022/05/20 12:12:24;;;;;;;;;;;;;;;;;;5117518;28;19916;-77
2022/05/20 12:14:59;;;;;;;;;;;;;;;;;;5115961;28;20328;-76
2022/05/20 12:17:34;;;;;;;;;;;;;;;;;;5117008;28;19947;-78
2022/05/20 12:25:39;;;;;;;;;;;;;;;;;;5115654;28;19922;-78
2022/05/20 12:28:22;;;;;;;;;;;;;;;;;;5116866;28;20018;-77
2022/05/20 12:31:09;;;;;;;;;;;;;;;;;;5116773;28;20006;-78
2022/05/20 12:33:54;;;;;;;;;;;;;;;;;;5115208;28;19923;-79
2022/05/20 12:36:28;;;;;;;;;;;;;;;;;;5116543;28;19916;-77
2022/05/20 12:39:14;;;;;;;;;;;;;;;;;;5116371;28;19916;-77
2022/05/20 12:41:49;;;;;;;;;;;;;;;;;;5116576;28;19923;-78
2022/05/20 12:44:20;;;;;;;;;;;;;;;;;;5116353;27;19959;-78
2022/05/20 12:46:51;;;;;;;;;;;;;;;;;;5115066;27;20347;-76
2022/05/20 12:49:17;;;;;;;;;;;;;;;;;;5116502;28;19921;-75
2022/05/20 12:51:47;;;;;;;;;;;;;;;;;;5115517;28;20272;-75
2022/05/20 12:54:16;;;;;;;;;;;;;;;;;;5116167;28;20317;-75
2022/05/20 12:56:41;;;;;;;;;;;;;;;;;;5116506;28;19970;-77
2022/05/20 12:59:19;;;;;;;;;;;;;;;;;;5116333;28;19951;-76
2022/05/20 13:01:47;;;;;;;;;;;;;;;;;;5115146;28;20285;-77
2022/05/20 13:04:13;;;;;;;;;;;;;;;;;;5116237;28;19954;-76
2022/05/20 13:06:38;;;;;;;;;;;;;;;;;;5114283;28;20415;-76
2022/05/20 13:09:06;;;;;;;;;;;;;;;;;;5115207;28;19923;-76
2022/05/20 13:11:41;;;;;;;;;;;;;;;;;;5116086;28;19923;-81
2022/05/20 13:14:08;;;;;;;;;;;;;;;;;;5116162;28;19915;-79
2022/05/20 13:16:34;;;;;;;;;;;;;;;;;;5118521;28;19997;-80
2022/05/20 13:19:00;;;;;;;;;;;;;;;;;;5116315;28;20317;-80
2022/05/20 13:21:27;;;;;;;;;;;;;;;;;;5115679;28;20268;-80
2022/05/20 13:23:55;;;;;;;;;;;;;;;;;;5114432;28;19922;-81
2022/05/20 13:26:25;;;;;;;;;;;;;;;;;;5115625;28;19916;-81
2022/05/20 13:28:50;;;;;;;;;;;;;;;;;;5116117;28;19980;-80
2022/05/20 13:31:19;;;;;;;;;;;;;;;;;;5115766;28;20396;-82
2022/05/20 13:33:45;;;;;;;;;;;;;;;;;;5097267;28;19916;-81
2022/05/20 13:36:19;;;;;;;;;;;;;;;;;;5113893;28;19923;-81
2022/05/20 13:38:49;;;;;;;;;;;;;;;;;;5097374;28;19916;-82
2022/05/20 13:41:14;;;;;;;;;;;;;;;;;;5097498;28;20001;-82
2022/05/20 13:43:40;;;;;;;;;;;;;;;;;;5115587;28;19916;-82
2022/05/20 13:51:35;;;;;;;;;;;;;;;;;;5114407;28;19973;-80
2022/05/20 13:54:03;;;;;;;;;;;;;;;;;;5115450;28;19919;-80
2022/05/20 13:56:33;;;;;;;;;;;;;;;;;;5114241;28;20422;-81
2022/05/20 13:59:05;;;;;;;;;;;;;;;;;;5113918;28;19923;-81
2022/05/20 14:01:30;;;;;;;;;;;;;;;;;;5113830;28;20343;-81
2022/05/20 14:03:57;;;;;;;;;;;;;;;;;;5096760;28;20015;-82
2022/05/20 14:06:25;;;;;;;;;;;;;;;;;;5113939;28;19916;-81
2022/05/20 14:08:55;;;;;;;;;;;;;;;;;;5114004;28;20002;-81
2022/05/20 14:11:28;;;;;;;;;;;;;;;;;;5096747;28;19947;-82
2022/05/20 14:13:57;;;;;;;;;;;;;;;;;;5114145;28;19976;-81
2022/05/20 14:16:29;;;;;;;;;;;;;;;;;;5114125;28;19912;-80
2022/05/20 14:18:56;;;;;;;;;;;;;;;;;;5096784;28;19916;-81
2022/05/20 14:21:27;;;;;;;;;;;;;;;;;;5114061;28;19966;-81
2022/05/20 14:23:58;;;;;;;;;;;;;;;;;;5096956;28;19922;-81
2022/05/20 14:26:26;;;;;;;;;;;;;;;;;;5113859;28;20022;-81
2022/05/20 14:28:57;;;;;;;;;;;;;;;;;;5115060;28;20322;-81
2022/05/20 14:31:22;;;;;;;;;;;;;;;;;;5113639;28;19916;-80
2022/05/20 14:33:48;;;;;;;;;;;;;;;;;;5115258;28;19915;-81
2022/05/20 14:36:14;;;;;;;;;;;;;;;;;;5114493;28;19916;-81
2022/05/20 14:38:44;;;;;;;;;;;;;;;;;;5113968;28;19915;-81
2022/05/20 14:41:14;;;;;;;;;;;;;;;;;;5115254;28;20002;-81
2022/05/20 14:43:46;;;;;;;;;;;;;;;;;;5113819;28;20350;-81
2022/05/20 14:47:13;;;;;;;;;;;;;;;;;;5113180;28;19920;-81
2022/05/20 14:48:57;;;;;;;;;;;;;;;;;;5113546;28;19915;-82
2022/05/20 14:51:25;;;;;;;;;;;;;;;;;;5113810;28;19915;-81
2022/05/20 14:53:50;;;;;;;;;;;;;;;;;;5113512;28;19939;-82
2022/05/20 14:56:51;;;;;;;;;;;;;;;;;;5115019;28;19916;-80
2022/05/20 14:59:31;;;;;;;;;;;;;;;;;;5092316;28;20333;-81
2022/05/20 15:01:56;;;;;;;;;;;;;;;;;;5111913;28;19923;-81
2022/05/20 15:04:22;;;;;;;;;;;;;;;;;;5114860;28;20266;-81
2022/05/20 15:06:58;;;;;;;;;;;;;;;;;;5115027;28;19916;-82
2022/05/20 15:09:24;;;;;;;;;;;;;;;;;;5113595;28;19916;-82
2022/05/20 15:11:50;;;;;;;;;;;;;;;;;;5116439;28;19919;-82
2022/05/20 15:14:16;;;;;;;;;;;;;;;;;;5118103;28;19916;-82
2022/05/20 15:16:41;;;;;;;;;;;;;;;;;;5118097;28;19923;-81
2022/05/20 15:19:07;;;;;;;;;;;;;;;;;;5118488;28;20410;-82
2022/05/20 15:21:33;;;;;;;;;;;;;;;;;;5118010;28;20268;-83
2022/05/20 15:24:25;;;;;;;;;;;;;;;;;;5116938;28;19916;-82
2022/05/20 15:26:50;;;;;;;;;;;;;;;;;;5116593;28;19916;-82
2022/05/20 15:29:17;;;;;;;;;;;;;;;;;;5118069;28;19939;-81
2022/05/20 15:37:10;;;;;;;;;;;;;;;;;;5116508;28;19922;-83
2022/05/20 15:39:37;;;;;;;;;;;;;;;;;;5117583;28;19915;-81
2022/05/20 15:42:02;;;;;;;;;;;;;;;;;;5116436;28;20255;-80
2022/05/20 15:44:27;;;;;;;;;;;;;;;;;;5117464;28;19998;-81
2022/05/20 15:46:53;;;;;;;;;;;;;;;;;;5116965;28;19959;-82
2022/05/20 15:49:19;;;;;;;;;;;;;;;;;;5117893;28;19915;-84
2022/05/20 15:51:44;;;;;;;;;;;;;;;;;;5117246;28;20334;-82
2022/05/20 15:54:11;;;;;;;;;;;;;;;;;;5117389;28;19916;-80
2022/05/20 15:56:36;;;;;;;;;;;;;;;;;;5116069;28;19920;-81
2022/05/20 15:59:01;;;;;;;;;;;;;;;;;;5115757;28;19972;-81
2022/05/20 16:01:27;;;;;;;;;;;;;;;;;;5116290;28;20006;-81
2022/05/20 16:03:52;;;;;;;;;;;;;;;;;;5116281;28;19923;-81
2022/05/20 16:06:19;;;;;;;;;;;;;;;;;;5117022;28;20671;-82
2022/05/20 16:08:45;;;;;;;;;;;;;;;;;;5099178;28;19916;-81
2022/05/20 16:11:11;;;;;;;;;;;;;;;;;;5116997;28;19915;-82
2022/05/20 16:13:36;;;;;;;;;;;;;;;;;;5115439;28;20367;-81
2022/05/20 16:16:01;;;;;;;;;;;;;;;;;;5116141;28;20362;-82
2022/05/20 16:18:27;;;;;;;;;;;;;;;;;;5117400;28;19923;-82
2022/05/20 16:20:52;;;;;;;;;;;;;;;;;;5115453;28;19916;-82
2022/05/20 16:23:19;;;;;;;;;;;;;;;;;;5116778;28;19951;-82
2022/05/20 16:25:45;;;;;;;;;;;;;;;;;;5115460;28;20344;-82
2022/05/20 16:28:11;;;;;;;;;;;;;;;;;;5115697;28;19916;-83
2022/05/20 16:30:36;;;;;;;;;;;;;;;;;;5116805;28;20330;-83
2022/05/20 16:33:01;;;;;;;;;;;;;;;;;;5116881;28;19916;-82
2022/05/20 16:35:27;;;;;;;;;;;;;;;;;;5098229;28;20006;-81
2022/05/20 16:37:52;;;;;;;;;;;;;;;;;;5116854;28;20329;-83
2022/05/20 16:40:19;;;;;;;;;;;;;;;;;;5115226;28;19922;-83
2022/05/20 16:42:44;;;;;;;;;;;;;;;;;;5115147;28;19972;-83
2022/05/20 16:45:10;;;;;;;;;;;;;;;;;;5115486;28;20573;-82
2022/05/20 16:47:48;;;;;;;;;;;;;;;;;;5116526;28;20238;-82
2022/05/20 16:50:16;;;;;;;;;;;;;;;;;;5116218;28;19923;-82
2022/05/20 16:52:41;;;;;;;;;;;;;;;;;;5116184;28;19911;-82
2022/05/20 16:55:07;;;;;;;;;;;;;;;;;;5115179;28;19923;-82
2022/05/20 17:03:00;;;;;;;;;;;;;;;;;;5115886;28;19968;-82
2022/05/20 17:05:25;;;;;;;;;;;;;;;;;;5115889;28;20327;-82
2022/05/20 17:07:50;;;;;;;;;;;;;;;;;;5116117;28;20363;-81
2022/05/20 17:10:16;;;;;;;;;;;;;;;;;;5115918;28;20352;-82
2022/05/20 17:12:41;;;;;;;;;;;;;;;;;;5115550;28;19915;-82
2022/05/20 17:15:07;;;;;;;;;;;;;;;;;;5116067;28;19923;-81
2022/05/20 17:17:34;;;;;;;;;;;;;;;;;;5116036;28;19951;-82
2022/05/20 17:19:59;;;;;;;;;;;;;;;;;;5114537;28;19926;-82
2022/05/20 17:25:08;;;;;;;;;;;;;;;;;;5115567;28;20306;-82
2022/05/20 17:27:34;;;;;;;;;;;;;;;;;;5097307;28;19920;-83
2022/05/20 17:30:00;;;;;;;;;;;;;;;;;;5115572;28;19955;-82
2022/05/20 17:32:25;;;;;;;;;;;;;;;;;;5115329;28;19912;-83
2022/05/20 17:34:51;;;;;;;;;;;;;;;;;;5117597;28;19998;-81
2022/05/20 17:37:17;;;;;;;;;;;;;;;;;;5116958;28;19912;-82
2022/05/20 17:39:42;;;;;;;;;;;;;;;;;;5118879;28;20014;-81
2022/05/20 17:42:08;;;;;;;;;;;;;;;;;;5121210;28;19951;-81
2022/05/20 17:44:34;;;;;;;;;;;;;;;;;;5118521;28;20316;-82
2022/05/20 17:46:59;;;;;;;;;;;;;;;;;;5115064;28;20430;-82
2022/05/20 17:49:25;;;;;;;;;;;;;;;;;;5115372;28;19957;-82